sensor_id;sensor_type;location;lat;lon;timestamp;temperature;humidity
64685;DHT22;51109;47.414;18.954;2024-03-02T00:00:21;10.00;99.90
64685;DHT22;51109;47.414;18.954;2024-03-02T00:02:49;10.00;99.90
64685;DHT22;51109;47.414;18.954;2024-03-02T00:05:20;10.00;99.90
64685;DHT22;51109;47.414;18.954;2024-03-02T00:07:55;10.10;99.90
64685;DHT22;51109;47.414;18.954;2024-03-02T00:10:40;10.10;99.90
64685;DHT22;51109;47.414;18.954;2024-03-02T00:13:07;10.00;99.90
64685;DHT22;51109;47.414;18.954;2024-03-02T00:15:40;10.00;99.90
64685;DHT22;51109;47.414;18.954;2024-03-02T00:18:14;10.00;99.90
64685;DHT22;51109;47.414;18.954;2024-03-02T00:20:40;9.90;99.90
64685;DHT22;51109;47.414;18.954;2024-03-02T00:23:08;9.80;99.90
64685;DHT22;51109;47.414;18.954;2024-03-02T00:25:45;9.80;99.90
64685;DHT22;51109;47.414;18.954;2024-03-02T00:28:23;9.80;99.90
64685;DHT22;51109;47.414;18.954;2024-03-02T00:33:36;9.80;99.90
64685;DHT22;51109;47.414;18.954;2024-03-02T00:36:05;9.80;99.90
64685;DHT22;51109;47.414;18.954;2024-03-02T00:38:33;9.80;99.90
64685;DHT22;51109;47.414;18.954;2024-03-02T00:41:04;9.70;99.90
64685;DHT22;51109;47.414;18.954;2024-03-02T00:43:54;9.70;99.90
64685;DHT22;51109;47.414;18.954;2024-03-02T00:46:22;9.70;99.90
64685;DHT22;51109;47.414;18.954;2024-03-02T00:48:53;9.70;99.90
64685;DHT22;51109;47.414;18.954;2024-03-02T00:51:21;9.70;99.90
64685;DHT22;51109;47.414;18.954;2024-03-02T00:53:47;9.60;99.90
64685;DHT22;51109;47.414;18.954;2024-03-02T00:56:14;9.60;99.90
64685;DHT22;51109;47.414;18.954;2024-03-02T00:58:40;9.60;99.90
64685;DHT22;51109;47.414;18.954;2024-03-02T01:01:06;9.60;99.90
64685;DHT22;51109;47.414;18.954;2024-03-02T01:03:33;9.60;99.90
64685;DHT22;51109;47.414;18.954;2024-03-02T01:05:59;9.60;99.90
64685;DHT22;51109;47.414;18.954;2024-03-02T01:08:25;9.60;99.90
64685;DHT22;51109;47.414;18.954;2024-03-02T01:10:52;9.60;99.90
64685;DHT22;51109;47.414;18.954;2024-03-02T01:13:17;9.60;99.90
64685;DHT22;51109;47.414;18.954;2024-03-02T01:15:43;9.60;99.90
64685;DHT22;51109;47.414;18.954;2024-03-02T01:18:09;9.60;99.90
64685;DHT22;51109;47.414;18.954;2024-03-02T01:20:35;9.60;99.90
64685;DHT22;51109;47.414;18.954;2024-03-02T01:23:01;9.60;99.90
64685;DHT22;51109;47.414;18.954;2024-03-02T01:25:26;9.50;99.90
64685;DHT22;51109;47.414;18.954;2024-03-02T01:27:52;9.50;99.90
64685;DHT22;51109;47.414;18.954;2024-03-02T01:30:18;9.50;99.90
64685;DHT22;51109;47.414;18.954;2024-03-02T01:32:44;9.50;99.90
64685;DHT22;51109;47.414;18.954;2024-03-02T01:35:10;9.40;99.90
64685;DHT22;51109;47.414;18.954;2024-03-02T01:37:36;9.30;99.90
64685;DHT22;51109;47.414;18.954;2024-03-02T01:40:01;9.30;99.90
64685;DHT22;51109;47.414;18.954;2024-03-02T01:42:28;9.30;99.90
64685;DHT22;51109;47.414;18.954;2024-03-02T01:44:54;9.60;99.90
64685;DHT22;51109;47.414;18.954;2024-03-02T01:47:20;9.20;99.90
64685;DHT22;51109;47.414;18.954;2024-03-02T01:49:46;9.20;99.90
64685;DHT22;51109;47.414;18.954;2024-03-02T01:52:11;9.30;99.90
64685;DHT22;51109;47.414;18.954;2024-03-02T01:54:37;9.30;99.90
64685;DHT22;51109;47.414;18.954;2024-03-02T01:57:03;9.30;99.90
64685;DHT22;51109;47.414;18.954;2024-03-02T01:59:29;9.40;99.90
64685;DHT22;51109;47.414;18.954;2024-03-02T02:01:55;9.40;99.90
64685;DHT22;51109;47.414;18.954;2024-03-02T02:04:21;9.40;99.90
64685;DHT22;51109;47.414;18.954;2024-03-02T02:06:53;10.00;99.90
64685;DHT22;51109;47.414;18.954;2024-03-02T02:09:19;10.40;99.90
64685;DHT22;51109;47.414;18.954;2024-03-02T02:11:44;9.40;99.90
64685;DHT22;51109;47.414;18.954;2024-03-02T02:14:10;9.50;99.90
64685;DHT22;51109;47.414;18.954;2024-03-02T02:16:37;9.50;99.90
64685;DHT22;51109;47.414;18.954;2024-03-02T02:19:02;9.50;99.90
64685;DHT22;51109;47.414;18.954;2024-03-02T02:21:28;9.50;99.90
64685;DHT22;51109;47.414;18.954;2024-03-02T02:24:00;10.60;99.90
64685;DHT22;51109;47.414;18.954;2024-03-02T02:26:28;10.40;99.90
64685;DHT22;51109;47.414;18.954;2024-03-02T02:28:54;9.50;99.90
64685;DHT22;51109;47.414;18.954;2024-03-02T02:31:20;10.50;99.90
64685;DHT22;51109;47.414;18.954;2024-03-02T02:33:46;9.50;99.90
64685;DHT22;51109;47.414;18.954;2024-03-02T02:36:12;9.50;99.90
64685;DHT22;51109;47.414;18.954;2024-03-02T02:38:41;9.50;99.90
64685;DHT22;51109;47.414;18.954;2024-03-02T02:41:09;9.50;99.90
64685;DHT22;51109;47.414;18.954;2024-03-02T02:43:35;9.50;99.90
64685;DHT22;51109;47.414;18.954;2024-03-02T02:46:01;9.50;99.90
64685;DHT22;51109;47.414;18.954;2024-03-02T02:48:26;9.50;99.90
64685;DHT22;51109;47.414;18.954;2024-03-02T02:50:52;9.50;99.90
64685;DHT22;51109;47.414;18.954;2024-03-02T02:53:18;9.50;99.90
64685;DHT22;51109;47.414;18.954;2024-03-02T02:55:44;9.50;99.90
64685;DHT22;51109;47.414;18.954;2024-03-02T02:58:10;9.50;99.90
64685;DHT22;51109;47.414;18.954;2024-03-02T03:00:36;9.50;99.90
64685;DHT22;51109;47.414;18.954;2024-03-02T03:03:02;9.50;99.90
64685;DHT22;51109;47.414;18.954;2024-03-02T03:05:28;9.40;99.90
64685;DHT22;51109;47.414;18.954;2024-03-02T03:07:54;9.40;99.90
64685;DHT22;51109;47.414;18.954;2024-03-02T03:10:19;9.40;99.90
64685;DHT22;51109;47.414;18.954;2024-03-02T03:12:47;9.40;99.90
64685;DHT22;51109;47.414;18.954;2024-03-02T03:15:13;9.40;99.90
64685;DHT22;51109;47.414;18.954;2024-03-02T03:17:40;9.40;99.90
64685;DHT22;51109;47.414;18.954;2024-03-02T03:20:06;9.40;99.90
64685;DHT22;51109;47.414;18.954;2024-03-02T03:22:36;9.40;99.90
64685;DHT22;51109;47.414;18.954;2024-03-02T03:25:02;9.40;99.90
64685;DHT22;51109;47.414;18.954;2024-03-02T03:27:29;9.40;99.90
64685;DHT22;51109;47.414;18.954;2024-03-02T03:29:55;9.40;99.90
64685;DHT22;51109;47.414;18.954;2024-03-02T03:32:20;9.40;99.90
64685;DHT22;51109;47.414;18.954;2024-03-02T03:34:47;9.40;99.90
64685;DHT22;51109;47.414;18.954;2024-03-02T03:37:14;9.40;99.90
64685;DHT22;51109;47.414;18.954;2024-03-02T03:39:41;10.80;99.90
64685;DHT22;51109;47.414;18.954;2024-03-02T03:42:06;9.40;99.90
64685;DHT22;51109;47.414;18.954;2024-03-02T03:44:33;9.40;99.90
64685;DHT22;51109;47.414;18.954;2024-03-02T03:46:59;9.30;99.90
64685;DHT22;51109;47.414;18.954;2024-03-02T03:49:26;9.30;99.90
64685;DHT22;51109;47.414;18.954;2024-03-02T03:51:52;9.30;99.90
64685;DHT22;51109;47.414;18.954;2024-03-02T03:54:17;9.40;99.90
64685;DHT22;51109;47.414;18.954;2024-03-02T03:56:43;9.40;99.90
64685;DHT22;51109;47.414;18.954;2024-03-02T03:59:09;9.30;99.90
64685;DHT22;51109;47.414;18.954;2024-03-02T04:01:35;9.30;99.90
64685;DHT22;51109;47.414;18.954;2024-03-02T04:04:01;9.20;99.90
64685;DHT22;51109;47.414;18.954;2024-03-02T04:06:29;9.20;99.90
64685;DHT22;51109;47.414;18.954;2024-03-02T04:08:55;9.10;99.90
64685;DHT22;51109;47.414;18.954;2024-03-02T04:11:21;9.10;99.90
64685;DHT22;51109;47.414;18.954;2024-03-02T04:13:47;9.00;99.90
64685;DHT22;51109;47.414;18.954;2024-03-02T04:16:13;9.00;99.90
64685;DHT22;51109;47.414;18.954;2024-03-02T04:18:38;9.00;99.90
64685;DHT22;51109;47.414;18.954;2024-03-02T04:21:05;9.00;99.90
64685;DHT22;51109;47.414;18.954;2024-03-02T04:23:31;9.00;99.90
64685;DHT22;51109;47.414;18.954;2024-03-02T04:25:56;9.00;99.90
64685;DHT22;51109;47.414;18.954;2024-03-02T04:28:22;8.90;99.90
64685;DHT22;51109;47.414;18.954;2024-03-02T04:30:48;8.90;99.90
64685;DHT22;51109;47.414;18.954;2024-03-02T04:33:14;8.90;99.90
64685;DHT22;51109;47.414;18.954;2024-03-02T04:35:39;8.80;99.90
64685;DHT22;51109;47.414;18.954;2024-03-02T04:38:05;8.80;99.90
64685;DHT22;51109;47.414;18.954;2024-03-02T04:40:31;8.70;99.90
64685;DHT22;51109;47.414;18.954;2024-03-02T04:42:57;8.70;99.90
64685;DHT22;51109;47.414;18.954;2024-03-02T04:45:24;8.70;99.90
64685;DHT22;51109;47.414;18.954;2024-03-02T04:47:50;8.60;99.90
64685;DHT22;51109;47.414;18.954;2024-03-02T04:50:16;8.60;99.90
64685;DHT22;51109;47.414;18.954;2024-03-02T04:52:42;7.30;99.90
64685;DHT22;51109;47.414;18.954;2024-03-02T04:55:08;8.60;99.90
64685;DHT22;51109;47.414;18.954;2024-03-02T04:58:00;8.10;99.90
64685;DHT22;51109;47.414;18.954;2024-03-02T05:00:26;8.60;99.90
64685;DHT22;51109;47.414;18.954;2024-03-02T05:02:52;8.60;99.90
64685;DHT22;51109;47.414;18.954;2024-03-02T05:05:18;8.60;99.90
64685;DHT22;51109;47.414;18.954;2024-03-02T05:07:43;8.60;99.90
64685;DHT22;51109;47.414;18.954;2024-03-02T05:10:10;8.50;99.90
64685;DHT22;51109;47.414;18.954;2024-03-02T05:12:37;8.60;99.90
64685;DHT22;51109;47.414;18.954;2024-03-02T05:15:22;8.60;99.90
64685;DHT22;51109;47.414;18.954;2024-03-02T05:17:48;8.50;99.90
64685;DHT22;51109;47.414;18.954;2024-03-02T05:20:14;8.60;99.90
64685;DHT22;51109;47.414;18.954;2024-03-02T05:22:40;8.50;99.90
64685;DHT22;51109;47.414;18.954;2024-03-02T05:25:06;8.50;99.90
64685;DHT22;51109;47.414;18.954;2024-03-02T05:27:33;8.50;99.90
64685;DHT22;51109;47.414;18.954;2024-03-02T05:29:59;8.80;99.90
64685;DHT22;51109;47.414;18.954;2024-03-02T05:32:25;8.50;99.90
64685;DHT22;51109;47.414;18.954;2024-03-02T05:34:51;8.50;99.90
64685;DHT22;51109;47.414;18.954;2024-03-02T05:37:17;8.50;99.90
64685;DHT22;51109;47.414;18.954;2024-03-02T05:39:43;8.40;99.90
64685;DHT22;51109;47.414;18.954;2024-03-02T05:42:09;8.50;99.90
64685;DHT22;51109;47.414;18.954;2024-03-02T05:44:36;8.50;99.90
64685;DHT22;51109;47.414;18.954;2024-03-02T05:47:02;8.50;99.90
64685;DHT22;51109;47.414;18.954;2024-03-02T05:49:28;8.50;99.90
64685;DHT22;51109;47.414;18.954;2024-03-02T05:51:55;8.40;99.90
64685;DHT22;51109;47.414;18.954;2024-03-02T05:54:21;8.40;99.90
64685;DHT22;51109;47.414;18.954;2024-03-02T05:56:50;8.50;99.90
64685;DHT22;51109;47.414;18.954;2024-03-02T05:59:15;8.40;99.90
64685;DHT22;51109;47.414;18.954;2024-03-02T06:01:43;8.40;99.90
64685;DHT22;51109;47.414;18.954;2024-03-02T06:04:10;8.40;99.90
64685;DHT22;51109;47.414;18.954;2024-03-02T06:06:39;10.30;99.90
64685;DHT22;51109;47.414;18.954;2024-03-02T06:09:05;8.50;99.90
64685;DHT22;51109;47.414;18.954;2024-03-02T06:11:35;8.50;99.90
64685;DHT22;51109;47.414;18.954;2024-03-02T06:14:03;8.40;99.90
64685;DHT22;51109;47.414;18.954;2024-03-02T06:16:29;8.40;99.90
64685;DHT22;51109;47.414;18.954;2024-03-02T06:18:56;8.40;99.90
64685;DHT22;51109;47.414;18.954;2024-03-02T06:21:24;8.50;99.90
64685;DHT22;51109;47.414;18.954;2024-03-02T06:23:49;8.50;99.90
64685;DHT22;51109;47.414;18.954;2024-03-02T06:26:16;8.50;99.90
64685;DHT22;51109;47.414;18.954;2024-03-02T06:28:42;8.50;99.90
64685;DHT22;51109;47.414;18.954;2024-03-02T06:31:08;8.50;99.90
64685;DHT22;51109;47.414;18.954;2024-03-02T06:33:34;8.50;99.90
64685;DHT22;51109;47.414;18.954;2024-03-02T06:36:00;8.60;99.90
64685;DHT22;51109;47.414;18.954;2024-03-02T06:38:26;8.50;99.90
64685;DHT22;51109;47.414;18.954;2024-03-02T06:40:52;8.50;99.90
64685;DHT22;51109;47.414;18.954;2024-03-02T06:43:18;8.50;99.90
64685;DHT22;51109;47.414;18.954;2024-03-02T06:45:44;8.50;99.90
64685;DHT22;51109;47.414;18.954;2024-03-02T06:48:10;8.50;99.90
64685;DHT22;51109;47.414;18.954;2024-03-02T06:50:35;8.50;99.90
64685;DHT22;51109;47.414;18.954;2024-03-02T06:53:01;8.50;99.90
64685;DHT22;51109;47.414;18.954;2024-03-02T06:55:29;8.50;99.90
64685;DHT22;51109;47.414;18.954;2024-03-02T06:57:55;8.50;99.90
64685;DHT22;51109;47.414;18.954;2024-03-02T07:00:21;8.60;99.90
64685;DHT22;51109;47.414;18.954;2024-03-02T07:02:47;8.60;99.90
64685;DHT22;51109;47.414;18.954;2024-03-02T07:05:13;8.60;99.90
64685;DHT22;51109;47.414;18.954;2024-03-02T07:07:39;8.60;99.90
64685;DHT22;51109;47.414;18.954;2024-03-02T07:10:05;8.60;99.90
64685;DHT22;51109;47.414;18.954;2024-03-02T07:12:34;8.70;99.90
64685;DHT22;51109;47.414;18.954;2024-03-02T07:15:00;8.60;99.90
64685;DHT22;51109;47.414;18.954;2024-03-02T07:17:29;8.70;99.90
64685;DHT22;51109;47.414;18.954;2024-03-02T07:19:54;8.60;99.90
64685;DHT22;51109;47.414;18.954;2024-03-02T07:22:20;8.60;99.90
64685;DHT22;51109;47.414;18.954;2024-03-02T07:24:47;8.60;99.90
64685;DHT22;51109;47.414;18.954;2024-03-02T07:27:13;8.60;99.90
64685;DHT22;51109;47.414;18.954;2024-03-02T07:29:40;8.60;99.90
64685;DHT22;51109;47.414;18.954;2024-03-02T07:32:07;8.60;99.90
64685;DHT22;51109;47.414;18.954;2024-03-02T07:34:32;8.60;99.90
64685;DHT22;51109;47.414;18.954;2024-03-02T07:36:58;8.70;99.90
64685;DHT22;51109;47.414;18.954;2024-03-02T07:39:25;8.70;99.90
64685;DHT22;51109;47.414;18.954;2024-03-02T07:41:50;8.70;99.90
64685;DHT22;51109;47.414;18.954;2024-03-02T07:44:16;8.70;99.90
64685;DHT22;51109;47.414;18.954;2024-03-02T07:46:48;9.70;99.90
64685;DHT22;51109;47.414;18.954;2024-03-02T07:49:17;8.70;99.90
64685;DHT22;51109;47.414;18.954;2024-03-02T07:51:43;8.80;99.90
64685;DHT22;51109;47.414;18.954;2024-03-02T07:54:09;8.70;99.90
64685;DHT22;51109;47.414;18.954;2024-03-02T07:56:35;8.70;99.90
64685;DHT22;51109;47.414;18.954;2024-03-02T07:59:02;8.80;99.90
64685;DHT22;51109;47.414;18.954;2024-03-02T08:01:29;8.80;99.90
64685;DHT22;51109;47.414;18.954;2024-03-02T08:04:01;8.80;99.90
64685;DHT22;51109;47.414;18.954;2024-03-02T08:06:29;8.70;99.90
64685;DHT22;51109;47.414;18.954;2024-03-02T08:08:56;8.70;99.90
64685;DHT22;51109;47.414;18.954;2024-03-02T08:11:22;8.70;99.90
64685;DHT22;51109;47.414;18.954;2024-03-02T08:13:48;8.80;99.90
64685;DHT22;51109;47.414;18.954;2024-03-02T08:16:17;8.80;99.90
64685;DHT22;51109;47.414;18.954;2024-03-02T08:18:48;8.80;99.90
64685;DHT22;51109;47.414;18.954;2024-03-02T08:21:14;8.80;99.90
64685;DHT22;51109;47.414;18.954;2024-03-02T08:23:40;8.80;99.90
64685;DHT22;51109;47.414;18.954;2024-03-02T08:26:10;8.80;99.90
64685;DHT22;51109;47.414;18.954;2024-03-02T08:28:36;8.80;99.90
64685;DHT22;51109;47.414;18.954;2024-03-02T08:31:08;8.80;99.90
64685;DHT22;51109;47.414;18.954;2024-03-02T08:33:35;8.90;99.90
64685;DHT22;51109;47.414;18.954;2024-03-02T08:36:01;8.90;99.90
64685;DHT22;51109;47.414;18.954;2024-03-02T08:38:27;8.80;99.90
64685;DHT22;51109;47.414;18.954;2024-03-02T08:40:53;8.90;99.90
64685;DHT22;51109;47.414;18.954;2024-03-02T08:43:19;8.90;99.90
64685;DHT22;51109;47.414;18.954;2024-03-02T08:45:45;8.90;99.90
64685;DHT22;51109;47.414;18.954;2024-03-02T08:48:11;9.00;99.90
64685;DHT22;51109;47.414;18.954;2024-03-02T08:50:37;8.90;99.90
64685;DHT22;51109;47.414;18.954;2024-03-02T08:53:03;9.00;99.90
64685;DHT22;51109;47.414;18.954;2024-03-02T08:55:30;9.00;99.90
64685;DHT22;51109;47.414;18.954;2024-03-02T08:57:56;9.00;99.90
64685;DHT22;51109;47.414;18.954;2024-03-02T09:00:22;9.00;99.90
64685;DHT22;51109;47.414;18.954;2024-03-02T09:02:48;9.00;99.90
64685;DHT22;51109;47.414;18.954;2024-03-02T09:05:14;9.00;99.90
64685;DHT22;51109;47.414;18.954;2024-03-02T09:07:40;9.00;99.90
64685;DHT22;51109;47.414;18.954;2024-03-02T09:10:07;9.00;99.90
64685;DHT22;51109;47.414;18.954;2024-03-02T09:12:35;9.00;99.90
64685;DHT22;51109;47.414;18.954;2024-03-02T09:15:01;9.00;99.90
64685;DHT22;51109;47.414;18.954;2024-03-02T09:17:29;9.00;99.90
64685;DHT22;51109;47.414;18.954;2024-03-02T09:19:55;9.00;99.90
64685;DHT22;51109;47.414;18.954;2024-03-02T09:22:21;8.90;99.90
64685;DHT22;51109;47.414;18.954;2024-03-02T09:24:47;9.00;99.90
64685;DHT22;51109;47.414;18.954;2024-03-02T09:27:13;9.00;99.90
64685;DHT22;51109;47.414;18.954;2024-03-02T09:29:38;9.00;99.90
64685;DHT22;51109;47.414;18.954;2024-03-02T09:32:05;8.90;99.90
64685;DHT22;51109;47.414;18.954;2024-03-02T09:34:31;9.00;99.90
64685;DHT22;51109;47.414;18.954;2024-03-02T09:36:57;9.00;99.90
64685;DHT22;51109;47.414;18.954;2024-03-02T09:39:23;9.00;99.90
64685;DHT22;51109;47.414;18.954;2024-03-02T09:41:51;8.90;99.90
64685;DHT22;51109;47.414;18.954;2024-03-02T09:44:17;8.90;99.90
64685;DHT22;51109;47.414;18.954;2024-03-02T09:46:43;8.90;99.90
64685;DHT22;51109;47.414;18.954;2024-03-02T09:49:12;9.00;99.90
64685;DHT22;51109;47.414;18.954;2024-03-02T09:51:38;8.90;99.90
64685;DHT22;51109;47.414;18.954;2024-03-02T09:54:07;8.90;99.90
64685;DHT22;51109;47.414;18.954;2024-03-02T09:56:33;9.00;99.90
64685;DHT22;51109;47.414;18.954;2024-03-02T09:58:59;9.00;99.90
64685;DHT22;51109;47.414;18.954;2024-03-02T10:01:25;9.00;99.90
64685;DHT22;51109;47.414;18.954;2024-03-02T10:03:52;9.10;99.90
64685;DHT22;51109;47.414;18.954;2024-03-02T10:06:22;9.00;99.90
64685;DHT22;51109;47.414;18.954;2024-03-02T10:08:48;9.00;99.90
64685;DHT22;51109;47.414;18.954;2024-03-02T10:11:27;9.10;99.90
64685;DHT22;51109;47.414;18.954;2024-03-02T10:14:11;9.10;99.90
64685;DHT22;51109;47.414;18.954;2024-03-02T10:16:39;9.10;99.90
64685;DHT22;51109;47.414;18.954;2024-03-02T10:19:24;9.10;99.90
64685;DHT22;51109;47.414;18.954;2024-03-02T10:21:51;9.10;99.90
64685;DHT22;51109;47.414;18.954;2024-03-02T10:24:18;9.10;99.90
64685;DHT22;51109;47.414;18.954;2024-03-02T10:26:44;9.10;99.90
64685;DHT22;51109;47.414;18.954;2024-03-02T10:29:11;9.10;99.90
64685;DHT22;51109;47.414;18.954;2024-03-02T10:31:42;9.10;99.90
64685;DHT22;51109;47.414;18.954;2024-03-02T10:34:10;9.10;99.90
64685;DHT22;51109;47.414;18.954;2024-03-02T10:36:37;9.20;99.90
64685;DHT22;51109;47.414;18.954;2024-03-02T10:39:06;9.20;99.90
64685;DHT22;51109;47.414;18.954;2024-03-02T10:41:34;9.20;99.90
64685;DHT22;51109;47.414;18.954;2024-03-02T10:44:02;9.30;99.90
64685;DHT22;51109;47.414;18.954;2024-03-02T10:46:30;9.40;99.90
64685;DHT22;51109;47.414;18.954;2024-03-02T10:49:00;9.40;99.90
64685;DHT22;51109;47.414;18.954;2024-03-02T10:51:28;9.30;99.90
64685;DHT22;51109;47.414;18.954;2024-03-02T10:53:57;9.40;99.90
64685;DHT22;51109;47.414;18.954;2024-03-02T10:56:31;9.20;99.90
64685;DHT22;51109;47.414;18.954;2024-03-02T10:59:32;9.20;99.90
64685;DHT22;51109;47.414;18.954;2024-03-02T11:02:00;9.30;99.90
64685;DHT22;51109;47.414;18.954;2024-03-02T11:04:30;9.20;99.90
64685;DHT22;51109;47.414;18.954;2024-03-02T11:07:09;9.30;99.90
64685;DHT22;51109;47.414;18.954;2024-03-02T11:09:40;9.40;99.90
64685;DHT22;51109;47.414;18.954;2024-03-02T11:12:12;9.40;99.90
64685;DHT22;51109;47.414;18.954;2024-03-02T11:14:41;9.30;99.90
64685;DHT22;51109;47.414;18.954;2024-03-02T11:17:11;9.40;99.90
64685;DHT22;51109;47.414;18.954;2024-03-02T11:19:40;9.30;99.90
64685;DHT22;51109;47.414;18.954;2024-03-02T11:22:06;9.20;99.90
64685;DHT22;51109;47.414;18.954;2024-03-02T11:24:32;9.30;99.90
64685;DHT22;51109;47.414;18.954;2024-03-02T11:26:59;9.30;99.90
64685;DHT22;51109;47.414;18.954;2024-03-02T11:32:17;9.50;99.90
64685;DHT22;51109;47.414;18.954;2024-03-02T11:34:46;9.60;99.90
64685;DHT22;51109;47.414;18.954;2024-03-02T11:37:13;9.50;99.90
64685;DHT22;51109;47.414;18.954;2024-03-02T11:39:39;9.60;99.90
64685;DHT22;51109;47.414;18.954;2024-03-02T11:42:06;9.60;99.90
64685;DHT22;51109;47.414;18.954;2024-03-02T11:44:34;9.60;99.90
64685;DHT22;51109;47.414;18.954;2024-03-02T11:47:00;10.00;99.90
64685;DHT22;51109;47.414;18.954;2024-03-02T11:49:40;9.50;99.90
64685;DHT22;51109;47.414;18.954;2024-03-02T11:52:09;9.60;99.90
64685;DHT22;51109;47.414;18.954;2024-03-02T11:54:36;9.60;99.90
64685;DHT22;51109;47.414;18.954;2024-03-02T11:57:05;9.70;99.90
64685;DHT22;51109;47.414;18.954;2024-03-02T11:59:32;9.80;99.90
64685;DHT22;51109;47.414;18.954;2024-03-02T12:01:58;9.80;99.90
64685;DHT22;51109;47.414;18.954;2024-03-02T12:04:25;9.80;99.90
64685;DHT22;51109;47.414;18.954;2024-03-02T12:06:59;9.70;99.90
64685;DHT22;51109;47.414;18.954;2024-03-02T12:09:27;9.70;99.90
64685;DHT22;51109;47.414;18.954;2024-03-02T12:12:09;9.70;99.90
64685;DHT22;51109;47.414;18.954;2024-03-02T12:14:37;9.70;99.90
64685;DHT22;51109;47.414;18.954;2024-03-02T12:17:04;11.20;99.90
64685;DHT22;51109;47.414;18.954;2024-03-02T12:19:31;9.80;99.90
64685;DHT22;51109;47.414;18.954;2024-03-02T12:21:57;9.80;99.90
64685;DHT22;51109;47.414;18.954;2024-03-02T12:24:27;9.80;99.90
64685;DHT22;51109;47.414;18.954;2024-03-02T12:26:54;9.80;99.90
64685;DHT22;51109;47.414;18.954;2024-03-02T12:29:21;9.80;99.90
64685;DHT22;51109;47.414;18.954;2024-03-02T12:31:51;9.70;99.90
64685;DHT22;51109;47.414;18.954;2024-03-02T12:34:18;9.70;99.90
64685;DHT22;51109;47.414;18.954;2024-03-02T12:36:46;9.70;99.90
64685;DHT22;51109;47.414;18.954;2024-03-02T12:39:16;9.80;99.90
64685;DHT22;51109;47.414;18.954;2024-03-02T12:41:42;9.90;99.90
64685;DHT22;51109;47.414;18.954;2024-03-02T12:44:08;9.70;99.90
64685;DHT22;51109;47.414;18.954;2024-03-02T12:46:34;9.70;99.90
64685;DHT22;51109;47.414;18.954;2024-03-02T12:49:12;9.80;99.90
64685;DHT22;51109;47.414;18.954;2024-03-02T12:51:40;9.80;99.90
64685;DHT22;51109;47.414;18.954;2024-03-02T12:54:07;9.80;99.90
64685;DHT22;51109;47.414;18.954;2024-03-02T12:56:33;9.70;99.90
64685;DHT22;51109;47.414;18.954;2024-03-02T12:59:00;9.70;99.90
64685;DHT22;51109;47.414;18.954;2024-03-02T13:01:26;9.70;99.90
64685;DHT22;51109;47.414;18.954;2024-03-02T13:03:53;9.70;99.90
64685;DHT22;51109;47.414;18.954;2024-03-02T13:06:21;9.70;99.90
64685;DHT22;51109;47.414;18.954;2024-03-02T13:08:47;9.60;99.90
64685;DHT22;51109;47.414;18.954;2024-03-02T13:11:13;9.60;99.90
64685;DHT22;51109;47.414;18.954;2024-03-02T13:13:40;9.60;99.90
64685;DHT22;51109;47.414;18.954;2024-03-02T13:16:09;9.60;99.90
64685;DHT22;51109;47.414;18.954;2024-03-02T13:18:36;9.50;99.90
64685;DHT22;51109;47.414;18.954;2024-03-02T13:21:02;9.60;99.90
64685;DHT22;51109;47.414;18.954;2024-03-02T13:23:28;9.50;99.90
64685;DHT22;51109;47.414;18.954;2024-03-02T13:25:57;9.50;99.90
64685;DHT22;51109;47.414;18.954;2024-03-02T13:28:27;9.50;99.90
64685;DHT22;51109;47.414;18.954;2024-03-02T13:30:53;9.40;99.90
64685;DHT22;51109;47.414;18.954;2024-03-02T13:33:19;9.40;99.90
64685;DHT22;51109;47.414;18.954;2024-03-02T13:35:51;9.80;99.90
64685;DHT22;51109;47.414;18.954;2024-03-02T13:38:18;9.30;99.90
64685;DHT22;51109;47.414;18.954;2024-03-02T13:40:44;9.30;99.90
64685;DHT22;51109;47.414;18.954;2024-03-02T13:43:11;10.00;99.90
64685;DHT22;51109;47.414;18.954;2024-03-02T13:45:38;9.80;99.90
64685;DHT22;51109;47.414;18.954;2024-03-02T13:48:04;9.20;99.90
64685;DHT22;51109;47.414;18.954;2024-03-02T13:50:31;9.10;99.90
64685;DHT22;51109;47.414;18.954;2024-03-02T13:52:57;10.20;99.90
64685;DHT22;51109;47.414;18.954;2024-03-02T13:55:23;9.10;99.90
64685;DHT22;51109;47.414;18.954;2024-03-02T13:57:49;9.10;99.90
64685;DHT22;51109;47.414;18.954;2024-03-02T14:00:18;9.10;99.90
64685;DHT22;51109;47.414;18.954;2024-03-02T14:02:45;9.10;99.90
64685;DHT22;51109;47.414;18.954;2024-03-02T14:05:11;9.10;99.90
64685;DHT22;51109;47.414;18.954;2024-03-02T14:07:41;9.10;99.90
64685;DHT22;51109;47.414;18.954;2024-03-02T14:10:08;9.00;99.90
64685;DHT22;51109;47.414;18.954;2024-03-02T14:12:33;9.00;99.90
64685;DHT22;51109;47.414;18.954;2024-03-02T14:14:59;9.10;99.90
64685;DHT22;51109;47.414;18.954;2024-03-02T14:17:28;9.00;99.90
64685;DHT22;51109;47.414;18.954;2024-03-02T14:19:54;9.00;99.90
64685;DHT22;51109;47.414;18.954;2024-03-02T14:22:20;8.90;99.90
64685;DHT22;51109;47.414;18.954;2024-03-02T14:24:46;8.90;99.90
64685;DHT22;51109;47.414;18.954;2024-03-02T14:27:13;8.90;99.90
64685;DHT22;51109;47.414;18.954;2024-03-02T14:29:41;8.90;99.90
64685;DHT22;51109;47.414;18.954;2024-03-02T14:32:06;8.90;99.90
64685;DHT22;51109;47.414;18.954;2024-03-02T14:34:32;8.80;99.90
64685;DHT22;51109;47.414;18.954;2024-03-02T14:36:59;8.90;99.90
64685;DHT22;51109;47.414;18.954;2024-03-02T14:39:25;8.90;99.90
64685;DHT22;51109;47.414;18.954;2024-03-02T14:41:51;8.90;99.90
64685;DHT22;51109;47.414;18.954;2024-03-02T14:44:17;8.90;99.90
64685;DHT22;51109;47.414;18.954;2024-03-02T14:46:46;8.90;99.90
64685;DHT22;51109;47.414;18.954;2024-03-02T14:49:13;8.90;99.90
64685;DHT22;51109;47.414;18.954;2024-03-02T14:51:39;8.90;99.90
64685;DHT22;51109;47.414;18.954;2024-03-02T14:54:04;8.80;99.90
64685;DHT22;51109;47.414;18.954;2024-03-02T14:56:30;8.80;99.90
64685;DHT22;51109;47.414;18.954;2024-03-02T14:58:56;8.80;99.90
64685;DHT22;51109;47.414;18.954;2024-03-02T15:01:22;8.90;99.90
64685;DHT22;51109;47.414;18.954;2024-03-02T15:03:52;8.90;99.90
64685;DHT22;51109;47.414;18.954;2024-03-02T15:06:17;8.80;99.90
64685;DHT22;51109;47.414;18.954;2024-03-02T15:08:43;8.90;99.90
64685;DHT22;51109;47.414;18.954;2024-03-02T15:11:12;8.90;99.90
64685;DHT22;51109;47.414;18.954;2024-03-02T15:13:38;8.90;99.90
64685;DHT22;51109;47.414;18.954;2024-03-02T15:16:04;8.80;99.90
64685;DHT22;51109;47.414;18.954;2024-03-02T15:18:30;8.80;99.90
64685;DHT22;51109;47.414;18.954;2024-03-02T15:20:56;8.90;99.90
64685;DHT22;51109;47.414;18.954;2024-03-02T15:23:22;8.90;99.90
64685;DHT22;51109;47.414;18.954;2024-03-02T15:25:47;8.90;99.90
64685;DHT22;51109;47.414;18.954;2024-03-02T15:28:13;8.90;99.90
64685;DHT22;51109;47.414;18.954;2024-03-02T15:30:39;8.90;99.90
64685;DHT22;51109;47.414;18.954;2024-03-02T15:33:05;8.90;99.90
64685;DHT22;51109;47.414;18.954;2024-03-02T15:35:31;8.90;99.90